Time;durP1;ratioP1;P1;durP2;ratioP2;P2;SDS_P1;SDS_P2;PMS_P1;PMS_P2;Temp;Humidity;BMP_temperature;BMP_pressure;BME280_temperature;BME280_humidity;BME280_pressure;Samples;Min_cycle;Max_cycle;Signal;HPM_P1;HPM_P2
2022/06/16 00:02:23;;;;;;;5.28;3.38;;;;;;;;;;6245737;23;20163;-93
2022/06/16 00:05:30;;;;;;;6.32;3.28;;;;;;;;;;6263508;22;20167;-92
2022/06/16 00:08:37;;;;;;;6.40;3.10;;;;;;;;;;6244911;22;20171;-92
2022/06/16 00:11:42;;;;;;;7.50;3.40;;;;;;;;;;6244103;22;20155;-93
2022/06/16 00:14:47;;;;;;;5.70;3.10;;;;;;;;;;6244550;23;20175;-92
2022/06/16 00:17:55;;;;;;;13.00;3.58;;;;;;;;;;6244714;22;20177;-92
2022/06/16 00:25:23;;;;;;;7.05;3.10;;;;;;;;;;6264256;22;20268;-91
2022/06/16 00:28:28;;;;;;;6.30;3.22;;;;;;;;;;6245680;22;20163;-92
2022/06/16 00:31:36;;;;;;;6.43;3.05;;;;;;;;;;6245578;23;20222;-93
2022/06/16 00:34:50;;;;;;;10.05;3.40;;;;;;;;;;6249538;22;20207;-93
2022/06/16 07:37:34;;;;;;;9.32;3.65;;;;;;;;;;6262723;22;20210;-93
2022/06/16 07:40:40;;;;;;;8.23;3.55;;;;;;;;;;6273376;22;20230;-93
2022/06/16 07:43:46;;;;;;;6.47;3.78;;;;;;;;;;6273036;22;20166;-93
2022/06/16 07:46:51;;;;;;;6.55;3.60;;;;;;;;;;6273274;22;20189;-92
2022/06/16 07:49:58;;;;;;;10.32;3.60;;;;;;;;;;6272567;22;20220;-93
2022/06/16 07:53:04;;;;;;;8.63;3.60;;;;;;;;;;6270982;22;20666;-94
2022/06/16 07:56:09;;;;;;;6.20;3.70;;;;;;;;;;6272714;22;20166;-93
2022/06/16 07:59:15;;;;;;;8.15;3.72;;;;;;;;;;6272114;22;20221;-93
2022/06/16 08:02:24;;;;;;;7.75;3.55;;;;;;;;;;6273044;22;20153;-92
2022/06/16 08:05:30;;;;;;;6.82;4.50;;;;;;;;;;6272559;22;20145;-92
2022/06/16 08:08:38;;;;;;;6.53;3.92;;;;;;;;;;6273399;22;20177;-93
2022/06/16 08:15:07;;;;;;;7.15;3.55;;;;;;;;;;6272695;22;20181;-92
2022/06/16 08:18:13;;;;;;;9.40;4.18;;;;;;;;;;6276384;22;20208;-92
2022/06/16 08:21:19;;;;;;;6.28;4.05;;;;;;;;;;6271490;22;20161;-91
2022/06/16 08:24:26;;;;;;;6.13;3.85;;;;;;;;;;6273714;22;20210;-93
2022/06/16 08:27:35;;;;;;;9.48;4.00;;;;;;;;;;6276694;22;20204;-92
2022/06/16 08:30:44;;;;;;;8.18;3.85;;;;;;;;;;6274462;22;20176;-93
2022/06/16 08:33:49;;;;;;;8.05;4.25;;;;;;;;;;6274413;22;20509;-92
2022/06/16 08:36:55;;;;;;;7.10;4.07;;;;;;;;;;6272390;22;20192;-95
2022/06/16 08:40:04;;;;;;;7.00;4.00;;;;;;;;;;6272106;22;20162;-93
2022/06/16 08:43:12;;;;;;;5.30;3.97;;;;;;;;;;6274087;22;20157;-92
2022/06/16 08:46:18;;;;;;;6.30;4.05;;;;;;;;;;6273042;22;20193;-94
2022/06/16 08:49:28;;;;;;;12.45;4.72;;;;;;;;;;6272998;22;20593;-93
2022/06/16 08:52:38;;;;;;;8.52;4.30;;;;;;;;;;6271339;22;20166;-94
2022/06/16 08:55:50;;;;;;;10.10;4.50;;;;;;;;;;6272992;22;20170;-93
2022/06/16 08:59:00;;;;;;;7.18;4.22;;;;;;;;;;6273139;22;20169;-94
2022/06/16 09:02:06;;;;;;;9.75;4.53;;;;;;;;;;6274201;22;20157;-93
2022/06/16 09:05:19;;;;;;;10.15;4.43;;;;;;;;;;6272930;22;20178;-94
2022/06/16 09:08:31;;;;;;;7.30;4.50;;;;;;;;;;6272988;22;20197;-92
2022/06/16 09:11:43;;;;;;;8.65;4.40;;;;;;;;;;6274156;22;20160;-93
2022/06/16 09:15:12;;;;;;;6.53;4.10;;;;;;;;;;6271134;22;20180;-91
2022/06/16 09:18:25;;;;;;;7.43;3.92;;;;;;;;;;6271608;22;20239;-92
2022/06/16 09:21:38;;;;;;;7.47;3.28;;;;;;;;;;6271252;22;20168;-92
2022/06/16 09:24:50;;;;;;;7.63;4.10;;;;;;;;;;6276786;22;20219;-91
2022/06/16 09:27:59;;;;;;;4.80;2.97;;;;;;;;;;6273876;22;20244;-94
2022/06/16 09:31:10;;;;;;;6.57;2.97;;;;;;;;;;6275616;22;20205;-94
2022/06/16 09:34:19;;;;;;;7.57;3.50;;;;;;;;;;6275591;22;20304;-94
2022/06/16 09:37:27;;;;;;;5.35;2.95;;;;;;;;;;6275554;22;20176;-93
2022/06/16 09:40:35;;;;;;;5.95;3.00;;;;;;;;;;6276167;22;20169;-94
2022/06/16 09:43:46;;;;;;;5.53;2.90;;;;;;;;;;6275197;22;20648;-93
2022/06/16 09:46:55;;;;;;;4.15;2.92;;;;;;;;;;6275028;22;20562;-94
2022/06/16 09:50:03;;;;;;;7.03;3.10;;;;;;;;;;6273816;22;20169;-94
2022/06/16 09:53:13;;;;;;;4.88;3.10;;;;;;;;;;6280456;22;20173;-94
2022/06/16 09:56:23;;;;;;;8.07;3.22;;;;;;;;;;6272068;22;20181;-94
2022/06/16 09:59:33;;;;;;;6.65;3.00;;;;;;;;;;6273572;22;20201;-93
2022/06/16 10:02:41;;;;;;;6.43;3.22;;;;;;;;;;6274331;22;20317;-92
2022/06/16 10:05:58;;;;;;;5.20;3.03;;;;;;;;;;6255353;22;20243;-93
2022/06/16 10:09:08;;;;;;;8.45;2.90;;;;;;;;;;6274260;22;20165;-92
2022/06/16 10:12:19;;;;;;;5.75;3.30;;;;;;;;;;6276589;22;20164;-93
2022/06/16 10:15:29;;;;;;;8.18;3.00;;;;;;;;;;6276700;22;20165;-92
2022/06/16 10:18:35;;;;;;;5.70;2.63;;;;;;;;;;6275375;22;20168;-93
2022/06/16 10:21:41;;;;;;;6.25;2.78;;;;;;;;;;6275659;22;20185;-94
2022/06/16 10:24:51;;;;;;;5.65;2.65;;;;;;;;;;6275442;22;20207;-95
2022/06/16 10:27:58;;;;;;;4.93;2.60;;;;;;;;;;6274664;22;20256;-93
2022/06/16 11:53:22;;;;;;;10.68;4.00;;;;;;;;;;6247377;22;20210;-92
2022/06/16 11:56:34;;;;;;;10.25;4.45;;;;;;;;;;6274260;22;20159;-91
2022/06/16 11:59:49;;;;;;;10.55;4.00;;;;;;;;;;6276608;22;20212;-95
2022/06/16 12:03:16;;;;;;;6.75;4.03;;;;;;;;;;6275270;22;20146;-95
2022/06/16 12:06:28;;;;;;;9.88;4.32;;;;;;;;;;6274724;22;20162;-93
2022/06/16 12:09:42;;;;;;;15.05;4.82;;;;;;;;;;6275220;22;20150;-92
2022/06/16 12:12:57;;;;;;;9.30;4.32;;;;;;;;;;6276661;22;20180;-93
2022/06/16 12:16:09;;;;;;;8.05;4.70;;;;;;;;;;6275815;22;20149;-92
2022/06/16 12:19:19;;;;;;;9.07;4.95;;;;;;;;;;6276951;22;20181;-93
2022/06/16 12:22:30;;;;;;;8.32;4.40;;;;;;;;;;6276534;22;20153;-93
2022/06/16 12:25:41;;;;;;;10.85;4.57;;;;;;;;;;6276933;22;20206;-92
2022/06/16 12:28:54;;;;;;;8.32;4.63;;;;;;;;;;6281157;22;20196;-93
2022/06/16 12:35:26;;;;;;;7.03;4.13;;;;;;;;;;6281281;22;20602;-93
2022/06/16 12:38:35;;;;;;;6.57;3.80;;;;;;;;;;6280352;22;20187;-91
2022/06/16 12:41:48;;;;;;;8.73;3.80;;;;;;;;;;6282275;22;20206;-91
2022/06/16 12:44:56;;;;;;;7.35;3.75;;;;;;;;;;6281387;22;20244;-91
2022/06/16 12:48:04;;;;;;;7.18;3.28;;;;;;;;;;6279024;22;20201;-94
2022/06/16 12:51:17;;;;;;;5.88;3.33;;;;;;;;;;6280694;22;20181;-91
2022/06/16 12:54:26;;;;;;;5.97;2.80;;;;;;;;;;6264710;22;20250;-92
2022/06/16 12:57:48;;;;;;;5.75;2.47;;;;;;;;;;6267597;22;20165;-93
2022/06/16 13:00:55;;;;;;;6.72;2.95;;;;;;;;;;6267738;22;20166;-92
2022/06/16 13:04:09;;;;;;;9.15;2.53;;;;;;;;;;6266208;22;20189;-93
2022/06/16 13:07:18;;;;;;;4.53;2.28;;;;;;;;;;6266123;22;20177;-92
2022/06/16 13:10:24;;;;;;;4.55;2.30;;;;;;;;;;6266234;22;20517;-92
2022/06/16 13:13:39;;;;;;;6.22;2.25;;;;;;;;;;6267627;22;20174;-92
2022/06/16 13:16:49;;;;;;;5.25;2.33;;;;;;;;;;6268207;22;20153;-94
2022/06/16 13:19:57;;;;;;;5.35;2.00;;;;;;;;;;6264496;22;20212;-91
2022/06/16 13:23:05;;;;;;;4.25;2.17;;;;;;;;;;6266484;22;20212;-92
2022/06/16 13:26:19;;;;;;;3.90;2.30;;;;;;;;;;6266135;22;20153;-90
2022/06/16 13:29:30;;;;;;;8.95;2.30;;;;;;;;;;6266237;22;20154;-94
2022/06/16 13:32:37;;;;;;;6.20;2.45;;;;;;;;;;6267102;22;20193;-94
2022/06/16 13:35:49;;;;;;;6.57;2.28;;;;;;;;;;6266052;22;20150;-94
2022/06/16 13:38:56;;;;;;;6.13;1.85;;;;;;;;;;6265092;22;20161;-93
2022/06/16 13:42:03;;;;;;;5.40;2.38;;;;;;;;;;6263329;22;20553;-91
2022/06/16 13:45:22;;;;;;;5.60;2.42;;;;;;;;;;6266438;22;20178;-92
2022/06/16 13:48:49;;;;;;;4.30;2.20;;;;;;;;;;6264744;22;20201;-93
2022/06/16 13:51:57;;;;;;;5.88;2.30;;;;;;;;;;6265626;22;20182;-94
2022/06/16 13:55:09;;;;;;;6.68;1.95;;;;;;;;;;6264735;22;20717;-93
2022/06/16 13:58:28;;;;;;;5.95;2.00;;;;;;;;;;6265607;22;20170;-91
2022/06/16 14:01:50;;;;;;;6.32;2.42;;;;;;;;;;6270655;22;20177;-94
2022/06/16 14:05:11;;;;;;;7.10;2.00;;;;;;;;;;6266373;22;20348;-93
2022/06/16 14:08:17;;;;;;;4.60;2.08;;;;;;;;;;6268677;22;20197;-92
2022/06/16 14:11:24;;;;;;;4.68;2.00;;;;;;;;;;6265502;22;20166;-94
2022/06/16 15:21:59;;;;;;;6.18;2.78;;;;;;;;;;6279365;22;20206;-92
2022/06/16 15:25:06;;;;;;;7.03;2.75;;;;;;;;;;6276558;22;20166;-92
2022/06/16 15:28:17;;;;;;;7.53;2.58;;;;;;;;;;6273923;22;20193;-91
2022/06/16 15:31:24;;;;;;;5.93;2.60;;;;;;;;;;6276480;22;20185;-92
2022/06/16 15:37:54;;;;;;;6.82;3.47;;;;;;;;;;6274998;22;20212;-91
2022/06/16 15:40:59;;;;;;;7.57;2.70;;;;;;;;;;6275503;22;20245;-92
2022/06/16 15:44:07;;;;;;;5.63;2.13;;;;;;;;;;6276727;22;20170;-92
2022/06/16 15:47:15;;;;;;;3.25;2.20;;;;;;;;;;6274890;22;20170;-91
2022/06/16 15:50:23;;;;;;;4.43;2.28;;;;;;;;;;6273632;22;20166;-92
2022/06/16 15:53:32;;;;;;;4.13;2.28;;;;;;;;;;6276234;22;20204;-90
2022/06/16 15:56:38;;;;;;;8.43;2.42;;;;;;;;;;6275106;22;20173;-92
2022/06/16 15:59:48;;;;;;;6.18;2.65;;;;;;;;;;6275193;22;20255;-91
2022/06/16 16:02:56;;;;;;;3.78;1.98;;;;;;;;;;6274005;22;20161;-93
2022/06/16 16:06:01;;;;;;;4.03;2.15;;;;;;;;;;6277316;22;20169;-91
2022/06/16 16:09:10;;;;;;;5.90;1.98;;;;;;;;;;6277942;22;20687;-92
2022/06/16 16:12:18;;;;;;;3.85;1.90;;;;;;;;;;6279013;22;20189;-91
2022/06/16 16:15:24;;;;;;;4.50;2.30;;;;;;;;;;6278439;22;20240;-93
2022/06/16 16:18:31;;;;;;;3.70;1.73;;;;;;;;;;6277721;22;20157;-92
2022/06/16 16:21:39;;;;;;;7.07;2.50;;;;;;;;;;6276506;22;20192;-93
2022/06/16 16:24:46;;;;;;;4.03;2.60;;;;;;;;;;6278365;22;20193;-91
2022/06/16 16:27:52;;;;;;;3.78;2.20;;;;;;;;;;6279205;22;20194;-92
2022/06/16 17:20:50;;;;;;;3.80;2.22;;;;;;;;;;6256100;22;20600;-94
2022/06/16 17:23:56;;;;;;;3.90;2.58;;;;;;;;;;6279577;22;20196;-92
2022/06/16 17:27:05;;;;;;;4.45;2.17;;;;;;;;;;6280512;22;20165;-92
2022/06/16 17:30:13;;;;;;;5.47;2.25;;;;;;;;;;6279862;22;20313;-90
2022/06/16 17:33:19;;;;;;;4.13;2.50;;;;;;;;;;6280604;22;20217;-92
2022/06/16 17:36:27;;;;;;;5.20;2.33;;;;;;;;;;6279001;22;20162;-92
2022/06/16 17:39:35;;;;;;;3.33;2.03;;;;;;;;;;6261792;22;20194;-92
2022/06/16 17:42:40;;;;;;;6.93;2.28;;;;;;;;;;6279089;22;20157;-92
2022/06/16 17:45:46;;;;;;;5.18;2.22;;;;;;;;;;6278567;22;20173;-92
2022/06/16 17:48:57;;;;;;;5.55;2.38;;;;;;;;;;6280048;22;20238;-93
2022/06/16 18:02:43;;;;;;;6.18;2.50;;;;;;;;;;6280179;22;20154;-93
2022/06/16 18:05:53;;;;;;;4.20;2.83;;;;;;;;;;6280939;22;20166;-92
2022/06/16 18:09:01;;;;;;;6.13;3.42;;;;;;;;;;6277392;22;20198;-91
2022/06/16 18:12:07;;;;;;;4.80;2.95;;;;;;;;;;6279525;22;20149;-91
2022/06/16 18:15:15;;;;;;;7.45;2.80;;;;;;;;;;6277173;22;20617;-93
2022/06/16 18:18:21;;;;;;;6.75;3.00;;;;;;;;;;6277435;22;20169;-93
2022/06/16 18:24:52;;;;;;;6.65;3.00;;;;;;;;;;6264316;22;20175;-91
2022/06/16 18:28:00;;;;;;;10.90;3.00;;;;;;;;;;6265419;22;20213;-93
2022/06/16 18:31:12;;;;;;;6.63;2.80;;;;;;;;;;6266179;22;20166;-92
2022/06/16 18:34:19;;;;;;;5.20;2.67;;;;;;;;;;6264992;22;20194;-92
2022/06/16 19:42:01;;;;;;;8.05;3.30;;;;;;;;;;6242844;22;20480;-92
2022/06/16 19:51:57;;;;;;;8.13;3.85;;;;;;;;;;6241622;22;20167;-90
2022/06/16 19:55:04;;;;;;;6.53;4.10;;;;;;;;;;6249551;22;20169;-93
2022/06/16 19:58:18;;;;;;;8.57;4.90;;;;;;;;;;6248819;22;20181;-91
2022/06/16 20:01:24;;;;;;;7.00;3.60;;;;;;;;;;6248327;22;20159;-92
2022/06/16 20:04:30;;;;;;;6.95;3.80;;;;;;;;;;6249841;22;20209;-91
2022/06/16 20:07:38;;;;;;;8.18;4.03;;;;;;;;;;6248469;23;20283;-92
2022/06/16 20:10:45;;;;;;;9.88;4.38;;;;;;;;;;6249740;22;20179;-91
2022/06/16 20:13:56;;;;;;;6.55;3.92;;;;;;;;;;6248891;23;20221;-91
2022/06/16 20:17:02;;;;;;;11.95;4.13;;;;;;;;;;6251188;22;20171;-92
2022/06/16 20:23:35;;;;;;;8.45;4.45;;;;;;;;;;6250494;22;20221;-92
2022/06/16 20:26:42;;;;;;;7.13;3.97;;;;;;;;;;6250067;22;20171;-91
2022/06/16 20:29:52;;;;;;;5.15;3.88;;;;;;;;;;6250272;23;20209;-93
